Time;durP1;ratioP1;P1;durP2;ratioP2;P2;SDS_P1;SDS_P2;PMS_P1;PMS_P2;Temp;Humidity;BMP_temperature;BMP_pressure;BME280_temperature;BME280_humidity;BME280_pressure;Samples;Min_cycle;Max_cycle;Signal;HPM_P1;HPM_P2
2021/06/29 00:02:11;;;;;;;9.23;5.18;;;;;;;23.23;56.89;95146.84;5112034;28;20528;-82
2021/06/29 00:04:37;;;;;;;5.28;4.28;;;;;;;23.17;56.93;95150.84;5093948;28;20031;-82
2021/06/29 00:07:03;;;;;;;7.68;4.90;;;;;;;23.25;56.85;95160.69;5093575;28;20039;-82
2021/06/29 00:09:28;;;;;;;6.03;4.60;;;;;;;23.05;57.58;95142.00;5115599;28;20152;-83
2021/06/29 00:11:54;;;;;;;6.35;4.63;;;;;;;22.97;57.54;95141.06;5114716;28;20035;-82
2021/06/29 00:14:19;;;;;;;8.98;4.38;;;;;;;22.91;57.63;95126.72;5092697;28;20047;-84
2021/06/29 00:16:45;;;;;;;7.53;4.55;;;;;;;23.09;58.00;95150.66;5093031;28;20053;-82
2021/06/29 00:19:10;;;;;;;4.60;4.13;;;;;;;23.09;57.62;95156.09;5111228;28;20039;-83
2021/06/29 00:21:36;;;;;;;6.30;4.50;;;;;;;23.07;57.46;95158.56;5110606;28;20065;-82
2021/06/29 00:24:02;;;;;;;8.32;4.70;;;;;;;23.08;57.07;95149.16;5110615;28;20480;-83
2021/06/29 00:26:27;;;;;;;6.03;4.50;;;;;;;23.03;57.79;95152.66;5110945;28;20035;-82
2021/06/29 00:28:53;;;;;;;7.78;4.45;;;;;;;22.84;57.99;95133.91;5092795;28;20024;-82
2021/06/29 00:31:19;;;;;;;6.53;4.35;;;;;;;22.94;58.24;95155.69;5075505;28;20462;-82
2021/06/29 00:33:45;;;;;;;6.10;4.43;;;;;;;22.43;58.47;95078.66;5092348;28;20090;-82
2021/06/29 00:36:14;;;;;;;5.75;4.68;;;;;;;22.93;57.96;95143.31;5074904;28;20090;-83
2021/06/29 00:38:40;;;;;;;5.68;4.43;;;;;;;22.78;58.20;95130.47;5091879;28;20493;-82
2021/06/29 00:41:05;;;;;;;5.32;4.20;;;;;;;22.88;58.31;95150.72;5110488;28;20027;-82
2021/06/29 00:43:31;;;;;;;6.00;4.45;;;;;;;22.88;58.25;95157.66;5092179;28;20049;-82
2021/06/29 00:45:56;;;;;;;7.63;4.65;;;;;;;22.82;58.54;95152.72;5110317;28;20028;-82
2021/06/29 00:48:22;;;;;;;6.68;4.72;;;;;;;22.79;58.96;95143.56;5092200;28;20028;-79
2021/06/29 00:50:47;;;;;;;5.28;4.03;;;;;;;22.67;58.72;95131.25;5110390;28;20019;-81
2021/06/29 00:53:13;;;;;;;7.00;4.45;;;;;;;22.78;59.13;95146.81;5092369;28;20027;-82
2021/06/29 00:55:38;;;;;;;8.98;4.50;;;;;;;22.65;58.83;95138.47;5091924;28;20081;-82
2021/06/29 00:58:34;;;;;;;7.10;4.32;;;;;;;22.60;59.24;95128.31;5027292;28;20437;-83
2021/06/29 01:00:59;;;;;;;7.18;4.60;;;;;;;22.69;59.60;95155.25;5104934;28;20050;-83
2021/06/29 01:03:25;;;;;;;6.43;4.32;;;;;;;22.65;59.35;95141.19;5110004;28;20413;-82
2021/06/29 01:05:50;;;;;;;7.22;4.80;;;;;;;22.52;59.59;95125.38;5090278;28;20065;-82
2021/06/29 01:08:16;;;;;;;5.30;4.32;;;;;;;22.02;59.39;95056.03;5092049;28;20080;-84
2021/06/29 01:10:41;;;;;;;6.95;4.70;;;;;;;22.35;59.06;95099.47;5092866;28;20095;-82
2021/06/29 01:13:07;;;;;;;7.75;4.47;;;;;;;22.67;59.60;95157.75;5110208;28;20081;-84
2021/06/29 01:15:32;;;;;;;5.40;3.97;;;;;;;22.65;59.90;95154.78;5091926;28;20053;-82
2021/06/29 01:18:00;;;;;;;5.28;4.28;;;;;;;22.50;59.81;95143.47;5109549;28;20032;-82
2021/06/29 01:20:28;;;;;;;6.38;4.80;;;;;;;22.58;59.76;95155.31;5110036;28;20030;-83
2021/06/29 01:23:06;;;;;;;7.15;4.70;;;;;;;22.56;59.50;95152.34;5110110;28;20479;-83
2021/06/29 01:25:32;;;;;;;6.60;4.55;;;;;;;22.51;60.19;95153.84;5109057;28;20028;-80
2021/06/29 01:33:19;;;;;;;6.28;4.68;;;;;;;22.53;59.78;95142.47;5109826;28;20432;-82
2021/06/29 01:35:44;;;;;;;7.30;4.72;;;;;;;22.49;59.91;95147.41;5110145;28;20023;-83
2021/06/29 01:38:15;;;;;;;7.03;4.78;;;;;;;22.45;60.13;95146.91;5110457;28;20020;-83
2021/06/29 01:40:41;;;;;;;6.18;4.80;;;;;;;21.41;59.93;94991.41;5111083;28;20093;-82
2021/06/29 01:43:06;;;;;;;6.60;4.85;;;;;;;22.38;60.28;95144.72;5092838;28;20024;-83
2021/06/29 01:45:33;;;;;;;6.30;4.43;;;;;;;22.30;60.53;95132.13;5113071;28;20016;-84
2021/06/29 01:48:00;;;;;;;6.80;4.43;;;;;;;21.75;60.54;95063.50;5106684;28;20031;-83
2021/06/29 01:50:25;;;;;;;6.57;4.25;;;;;;;21.40;60.46;95019.81;5096021;28;20012;-83
2021/06/29 01:52:56;;;;;;;7.13;4.68;;;;;;;22.26;60.95;95146.00;5117714;28;20028;-83
2021/06/29 01:55:21;;;;;;;6.68;4.75;;;;;;;22.13;60.67;95124.00;5102204;28;20023;-83
2021/06/29 01:57:49;;;;;;;6.13;4.57;;;;;;;22.18;60.90;95145.00;5096749;28;20407;-83
2021/06/29 02:00:15;;;;;;;5.90;4.72;;;;;;;22.07;61.10;95127.97;5099006;28;20028;-83
2021/06/29 02:02:41;;;;;;;6.72;4.65;;;;;;;21.78;60.56;95084.25;5115600;28;20392;-83
2021/06/29 02:05:06;;;;;;;6.50;4.75;;;;;;;22.19;60.82;95149.19;5096549;28;20012;-83
2021/06/29 02:07:32;;;;;;;6.72;4.70;;;;;;;22.15;61.04;95145.25;5115239;28;20034;-83
2021/06/29 02:09:57;;;;;;;5.28;4.43;;;;;;;21.98;60.82;95136.38;5114308;28;20498;-83
2021/06/29 02:12:23;;;;;;;5.78;3.97;;;;;;;21.91;60.60;95125.28;5117339;28;20026;-83
2021/06/29 02:14:48;;;;;;;7.00;4.70;;;;;;;21.53;60.71;95064.28;5080634;28;20027;-82
2021/06/29 02:17:13;;;;;;;6.25;4.55;;;;;;;22.11;60.96;95150.94;5115407;28;20038;-82
2021/06/29 02:19:39;;;;;;;6.22;4.70;;;;;;;22.08;60.57;95151.94;5134553;28;20028;-82
2021/06/29 02:22:06;;;;;;;6.85;4.32;;;;;;;22.07;60.39;95149.72;5135552;28;20043;-82
2021/06/29 02:24:32;;;;;;;5.50;4.82;;;;;;;21.92;60.31;95130.22;5131277;28;20031;-82
2021/06/29 02:26:57;;;;;;;6.03;4.95;;;;;;;22.05;60.33;95147.50;5132693;28;20118;-81
2021/06/29 02:29:23;;;;;;;6.65;5.00;;;;;;;21.99;60.28;95144.03;5117931;28;20030;-82
2021/06/29 02:31:48;;;;;;;6.13;4.95;;;;;;;22.02;60.62;95148.50;5115342;28;20039;-82
2021/06/29 02:34:14;;;;;;;6.65;4.60;;;;;;;21.89;60.62;95128.50;5094566;28;20032;-82
2021/06/29 02:36:39;;;;;;;7.28;5.05;;;;;;;21.98;60.90;95164.31;5112837;28;20024;-81
2021/06/29 02:39:05;;;;;;;6.80;4.38;;;;;;;21.96;60.89;95150.47;5094641;28;20035;-81
2021/06/29 02:41:30;;;;;;;7.75;4.70;;;;;;;21.87;61.14;95135.66;5112777;28;20058;-81
2021/06/29 02:43:56;;;;;;;7.70;4.88;;;;;;;21.97;61.06;95151.97;5113180;28;20031;-82
2021/06/29 02:46:21;;;;;;;7.22;5.10;;;;;;;21.93;61.20;95146.03;5113106;28;20037;-82
2021/06/29 02:48:47;;;;;;;5.70;4.63;;;;;;;21.81;61.34;95135.66;5112496;28;20405;-82
2021/06/29 02:51:13;;;;;;;7.97;5.00;;;;;;;21.71;61.19;95117.38;5112398;28;20553;-82
2021/06/29 02:53:39;;;;;;;8.45;5.63;;;;;;;21.92;61.33;95148.50;5112699;28;20541;-82
2021/06/29 02:56:04;;;;;;;6.18;4.90;;;;;;;21.86;61.82;95161.38;5112191;28;20048;-82
2021/06/29 02:58:29;;;;;;;7.28;4.97;;;;;;;21.66;61.85;95137.16;5112906;28;20027;-83
2021/06/29 03:00:55;;;;;;;7.50;5.22;;;;;;;21.20;61.90;95074.38;5112556;28;20385;-82
2021/06/29 03:03:20;;;;;;;6.97;5.15;;;;;;;21.72;62.04;95148.75;5094095;28;21142;-83
2021/06/29 03:05:46;;;;;;;7.85;4.70;;;;;;;21.68;62.25;95153.72;5112314;28;20043;-83
2021/06/29 03:08:11;;;;;;;5.38;4.50;;;;;;;20.99;62.07;95054.13;5076756;28;20019;-83
2021/06/29 03:10:37;;;;;;;8.20;4.95;;;;;;;21.51;62.46;95131.25;5111593;28;20020;-83
2021/06/29 03:13:02;;;;;;;6.75;4.80;;;;;;;21.71;62.40;95144.56;5093309;28;20027;-83
2021/06/29 03:15:28;;;;;;;6.40;4.90;;;;;;;21.22;62.31;95077.34;5112522;28;20031;-82
2021/06/29 03:17:53;;;;;;;5.60;4.80;;;;;;;21.73;62.36;95158.41;5093960;28;20068;-83
2021/06/29 03:20:19;;;;;;;8.18;4.80;;;;;;;21.72;62.70;95154.19;5112286;28;20032;-82
2021/06/29 03:22:45;;;;;;;6.47;4.72;;;;;;;21.73;62.74;95163.84;5111918;28;20363;-82
2021/06/29 03:25:11;;;;;;;7.28;5.00;;;;;;;21.61;62.96;95154.19;5112071;28;20031;-83
2021/06/29 03:27:36;;;;;;;6.57;4.93;;;;;;;21.69;63.03;95157.91;5111367;28;20023;-83
2021/06/29 03:30:04;;;;;;;9.02;5.05;;;;;;;21.69;62.83;95152.50;5111083;28;20507;-83
2021/06/29 03:32:29;;;;;;;7.82;5.55;;;;;;;21.42;62.77;95112.44;5112066;28;20027;-83
2021/06/29 03:34:55;;;;;;;8.80;5.82;;;;;;;21.62;62.69;95142.09;5111458;28;20023;-84
2021/06/29 03:37:20;;;;;;;6.93;5.30;;;;;;;21.74;62.68;95159.88;5111078;28;20035;-83
2021/06/29 03:39:46;;;;;;;6.03;4.80;;;;;;;21.30;63.11;95105.50;5111339;28;20027;-83
2021/06/29 03:42:11;;;;;;;5.50;4.80;;;;;;;21.74;63.08;95159.88;5093034;28;20027;-84
2021/06/29 03:44:37;;;;;;;7.45;5.10;;;;;;;21.45;62.89;95111.44;5110798;28;20008;-83
2021/06/29 03:47:02;;;;;;;7.93;4.93;;;;;;;21.77;63.26;95164.34;5110180;28;20020;-81
2021/06/29 03:49:28;;;;;;;6.75;5.10;;;;;;;21.80;63.29;95157.91;5111242;28;20016;-82
2021/06/29 03:51:53;;;;;;;8.02;5.00;;;;;;;21.82;63.34;95171.75;5093245;28;20027;-82
2021/06/29 03:54:19;;;;;;;8.55;5.22;;;;;;;20.93;63.62;95027.50;5091802;28;20506;-82
2021/06/29 03:56:45;;;;;;;8.88;5.70;;;;;;;21.83;63.54;95178.66;5089989;28;20055;-75
2021/06/29 03:59:10;;;;;;;6.65;4.70;;;;;;;21.56;63.25;95114.91;5108348;28;20101;-77
2021/06/29 04:01:36;;;;;;;8.85;5.28;;;;;;;21.69;62.81;95109.72;5087801;28;20039;-84
2021/06/29 04:04:02;;;;;;;9.23;5.10;;;;;;;22.09;62.49;95150.72;5074394;28;20030;-76
2021/06/29 04:06:34;;;;;;;7.20;5.10;;;;;;;22.37;62.28;95178.63;5108882;28;20027;-77
2021/06/29 04:09:01;;;;;;;6.93;4.88;;;;;;;22.49;61.97;95182.78;5102410;28;20027;-74
2021/06/29 04:11:27;;;;;;;6.90;4.78;;;;;;;22.61;61.63;95182.25;5088267;28;20528;-74
2021/06/29 04:13:52;;;;;;;7.38;5.22;;;;;;;22.42;61.76;95142.50;5105946;28;20063;-82
2021/06/29 04:16:18;;;;;;;9.50;5.10;;;;;;;22.44;61.06;95110.09;5086780;28;20047;-80
2021/06/29 04:18:44;;;;;;;8.23;5.22;;;;;;;22.47;60.13;95096.22;5091944;28;20027;-78
2021/06/29 04:21:09;;;;;;;7.90;5.75;;;;;;;23.13;59.55;95167.44;5091161;28;20027;-76
2021/06/29 04:23:35;;;;;;;9.60;5.90;;;;;;;23.37;58.93;95175.75;5091564;28;20746;-80
2021/06/29 04:26:00;;;;;;;7.50;5.93;;;;;;;22.98;57.67;95090.78;5090938;28;20088;-76
2021/06/29 04:28:26;;;;;;;9.15;5.88;;;;;;;23.66;57.79;95170.38;5090336;28;20028;-75
2021/06/29 04:30:51;;;;;;;13.77;5.57;;;;;;;23.81;57.76;95164.53;5111420;28;20024;-77
2021/06/29 04:33:17;;;;;;;8.98;5.43;;;;;;;23.92;56.95;95168.66;5127179;28;20024;-76
2021/06/29 04:35:42;;;;;;;7.80;5.57;;;;;;;24.03;56.90;95163.09;5093779;28;20027;-80
2021/06/29 04:38:08;;;;;;;11.23;6.15;;;;;;;23.92;56.66;95127.75;5105780;28;20405;-78
2021/06/29 04:40:33;;;;;;;9.38;6.88;;;;;;;24.14;56.30;95143.16;5106961;28;20027;-78
2021/06/29 04:42:59;;;;;;;8.32;6.38;;;;;;;24.42;55.74;95171.69;5100471;28;20028;-78
2021/06/29 04:45:26;;;;;;;10.98;6.45;;;;;;;24.40;55.36;95149.63;5102421;28;20443;-80
2021/06/29 04:47:53;;;;;;;9.10;5.68;;;;;;;24.64;55.63;95164.00;5110004;28;20087;-75
2021/06/29 04:50:19;;;;;;;8.80;6.28;;;;;;;24.76;55.46;95176.28;5109374;28;20410;-75
2021/06/29 04:52:44;;;;;;;8.77;6.75;;;;;;;24.53;54.61;95130.63;5106750;28;20030;-79
2021/06/29 04:55:10;;;;;;;12.77;7.20;;;;;;;24.92;54.65;95169.88;5107311;28;20028;-82
2021/06/29 04:57:36;;;;;;;10.23;6.72;;;;;;;24.98;54.43;95176.75;5107224;28;20047;-73
2021/06/29 05:00:07;;;;;;;8.82;6.10;;;;;;;25.17;54.11;95174.81;5102738;28;20024;-73
2021/06/29 05:02:32;;;;;;;9.25;6.65;;;;;;;25.28;53.59;95177.38;5100940;28;20118;-71
2021/06/29 05:04:58;;;;;;;10.57;6.45;;;;;;;25.40;53.06;95173.25;5101563;28;20444;-71
2021/06/29 05:07:23;;;;;;;8.40;6.57;;;;;;;25.51;52.88;95178.53;5082587;28;20489;-74
2021/06/29 05:09:49;;;;;;;12.73;6.40;;;;;;;25.60;52.79;95172.69;5104626;28;20012;-71
2021/06/29 05:12:14;;;;;;;10.88;6.55;;;;;;;25.70;52.57;95173.81;5098630;28;20454;-74
2021/06/29 05:14:40;;;;;;;12.05;6.75;;;;;;;25.76;52.04;95166.28;5080524;28;20027;-71
2021/06/29 05:17:05;;;;;;;10.15;7.15;;;;;;;25.87;51.86;95172.28;5078157;28;20058;-72
2021/06/29 05:19:31;;;;;;;10.73;7.03;;;;;;;25.97;51.34;95171.38;5099188;28;20033;-74
2021/06/29 05:21:56;;;;;;;11.43;6.50;;;;;;;26.03;51.42;95169.28;5103585;28;20077;-72
2021/06/29 05:24:21;;;;;;;8.68;7.07;;;;;;;25.92;50.88;95153.06;5106339;28;20038;-73
2021/06/29 05:26:47;;;;;;;10.65;7.18;;;;;;;25.65;50.91;95111.72;5107192;28;20028;-75
2021/06/29 05:29:13;;;;;;;10.27;6.72;;;;;;;26.27;51.01;95166.38;5089811;28;21479;-73
2021/06/29 05:31:38;;;;;;;10.35;6.97;;;;;;;26.34;50.80;95176.75;5111435;28;20556;-73
2021/06/29 05:34:03;;;;;;;10.68;7.65;;;;;;;26.34;50.71;95171.28;5092506;28;20028;-72
2021/06/29 05:36:29;;;;;;;10.18;7.40;;;;;;;25.79;49.89;95072.94;5105150;28;20038;-69
2021/06/29 05:38:54;;;;;;;9.65;6.68;;;;;;;26.44;50.26;95169.59;5089382;28;20708;-71
2021/06/29 05:41:20;;;;;;;9.15;6.78;;;;;;;26.51;50.21;95163.50;5103872;28;20023;-74
2021/06/29 05:43:45;;;;;;;10.40;6.80;;;;;;;26.57;50.53;95167.59;5108778;28;20019;-73
2021/06/29 05:46:13;;;;;;;10.00;6.93;;;;;;;26.63;50.69;95159.28;5089666;28;20031;-74
2021/06/29 05:48:38;;;;;;;10.02;6.63;;;;;;;26.52;49.95;95149.28;5027661;28;20081;-73
2021/06/29 05:51:04;;;;;;;14.30;6.88;;;;;;;26.59;49.79;95134.94;5066533;28;20032;-74
2021/06/29 05:53:30;;;;;;;11.82;7.65;;;;;;;26.90;49.96;95170.44;5065948;28;20037;-73
2021/06/29 05:55:56;;;;;;;12.07;7.05;;;;;;;26.89;50.24;95166.25;5069874;28;20068;-71
2021/06/29 05:58:21;;;;;;;12.63;6.82;;;;;;;26.98;49.77;95170.56;5067482;28;20442;-70
2021/06/29 06:00:47;;;;;;;16.48;6.55;;;;;;;27.04;49.73;95160.97;5067370;28;20630;-78
2021/06/29 06:03:12;;;;;;;16.42;6.72;;;;;;;27.07;50.85;95170.88;5079197;28;20039;-79
2021/06/29 06:05:38;;;;;;;12.75;5.97;;;;;;;27.14;50.54;95172.94;5070219;28;20029;-79
2021/06/29 06:08:03;;;;;;;11.35;5.70;;;;;;;27.14;50.75;95159.25;5067427;28;20035;-80
2021/06/29 06:10:29;;;;;;;12.88;5.57;;;;;;;27.06;50.47;95163.19;5072505;28;20036;-80
2021/06/29 06:12:54;;;;;;;12.65;6.22;;;;;;;27.04;50.57;95160.22;5070829;28;20782;-80
2021/06/29 06:15:20;;;;;;;10.23;5.68;;;;;;;27.05;50.51;95172.66;5069743;28;20020;-80
2021/06/29 06:17:46;;;;;;;11.00;5.72;;;;;;;26.65;50.58;95107.44;5069537;28;20127;-79
2021/06/29 06:20:11;;;;;;;11.90;5.95;;;;;;;27.03;50.64;95162.22;5075051;28;20033;-80
2021/06/29 06:22:37;;;;;;;9.35;5.70;;;;;;;27.03;50.86;95164.97;5074391;28;20081;-77
2021/06/29 06:25:04;;;;;;;10.82;5.72;;;;;;;27.01;50.70;95162.03;5082440;28;20024;-79
2021/06/29 06:27:30;;;;;;;10.90;6.20;;;;;;;26.91;50.41;95157.50;5071063;28;20461;-80
2021/06/29 06:29:55;;;;;;;13.50;5.80;;;;;;;26.96;50.95;95160.13;5071330;28;20036;-80
2021/06/29 06:32:21;;;;;;;8.70;6.10;;;;;;;26.87;51.35;95148.81;5066763;28;20055;-79
2021/06/29 06:34:46;;;;;;;9.30;5.30;;;;;;;26.89;51.19;95166.25;5061672;28;20025;-80
2021/06/29 06:37:12;;;;;;;11.77;6.10;;;;;;;26.49;51.45;95105.78;5063178;28;20025;-79
2021/06/29 06:39:37;;;;;;;8.63;5.30;;;;;;;26.68;50.95;95139.25;5066988;28;20596;-78
2021/06/29 06:42:03;;;;;;;12.65;5.35;;;;;;;26.78;51.12;95165.69;5063634;28;20024;-79
2021/06/29 06:44:28;;;;;;;9.40;5.70;;;;;;;26.69;51.56;95154.44;5064330;28;20013;-80
2021/06/29 06:46:54;;;;;;;8.70;6.00;;;;;;;26.75;51.61;95166.03;5061646;28;20035;-80
2021/06/29 06:49:19;;;;;;;8.07;5.97;;;;;;;26.72;51.32;95161.59;5068555;28;20040;-79
2021/06/29 06:51:44;;;;;;;6.80;5.32;;;;;;;26.69;51.84;95157.16;5068845;28;20028;-79
2021/06/29 06:54:10;;;;;;;11.45;5.28;;;;;;;25.94;51.17;95062.97;5071744;28;20070;-79
2021/06/29 06:56:36;;;;;;;7.95;5.40;;;;;;;26.67;51.56;95159.72;5069717;28;20040;-78
2021/06/29 06:59:01;;;;;;;10.38;5.43;;;;;;;26.57;51.74;95145.69;5076298;28;20027;-79
2021/06/29 07:01:27;;;;;;;8.88;5.20;;;;;;;26.44;51.57;95136.72;5068158;28;20079;-79
2021/06/29 07:03:52;;;;;;;8.98;5.40;;;;;;;26.25;51.94;95111.41;5076338;28;20020;-80
2021/06/29 07:06:17;;;;;;;8.73;5.18;;;;;;;26.58;51.88;95149.91;5057629;28;20036;-80
2021/06/29 07:08:43;;;;;;;8.50;5.20;;;;;;;26.55;52.02;95147.50;5066274;28;20032;-81
2021/06/29 07:11:09;;;;;;;7.47;5.28;;;;;;;26.54;52.07;95146.00;5069917;28;20047;-81
2021/06/29 07:13:34;;;;;;;8.57;5.10;;;;;;;26.53;52.01;95144.53;5063953;28;20027;-81
2021/06/29 07:16:00;;;;;;;7.22;5.15;;;;;;;26.10;51.98;95092.03;5081606;28;20086;-81
2021/06/29 07:18:25;;;;;;;7.65;4.85;;;;;;;26.49;51.91;95149.59;5087293;28;20042;-81
2021/06/29 07:20:51;;;;;;;8.57;5.15;;;;;;;26.27;52.03;95110.91;5089155;28;20491;-81
2021/06/29 07:23:16;;;;;;;7.57;5.75;;;;;;;25.94;52.35;95067.69;5071189;28;20023;-81
2021/06/29 07:25:42;;;;;;;7.78;5.25;;;;;;;26.07;51.80;95092.31;5081789;28;20028;-80
2021/06/29 07:28:08;;;;;;;10.63;5.95;;;;;;;25.98;50.92;95068.88;5043822;28;20615;-80
2021/06/29 07:30:34;;;;;;;9.52;6.32;;;;;;;26.09;50.78;95090.56;5073947;28;20028;-81
2021/06/29 07:33:00;;;;;;;9.38;5.75;;;;;;;26.40;50.22;95136.31;5072386;28;20020;-79
2021/06/29 07:35:25;;;;;;;9.23;6.20;;;;;;;26.34;50.09;95133.66;5074875;28;20711;-80
2021/06/29 07:37:51;;;;;;;10.70;5.60;;;;;;;25.98;49.70;95079.81;5055253;28;20032;-80
2021/06/29 07:40:16;;;;;;;8.98;6.68;;;;;;;25.78;49.73;95054.31;5063903;28;20023;-78
2021/06/29 07:42:42;;;;;;;10.55;6.50;;;;;;;25.53;49.87;95026.38;5075576;28;20027;-81
2021/06/29 07:45:08;;;;;;;8.60;5.32;;;;;;;26.38;50.04;95138.81;5079919;28;20027;-81
2021/06/29 07:47:34;;;;;;;8.23;5.80;;;;;;;25.95;49.57;95075.38;5085207;28;20029;-79
2021/06/29 07:49:59;;;;;;;8.43;5.68;;;;;;;26.34;49.49;95132.94;5100136;28;20060;-78
2021/06/29 07:52:25;;;;;;;8.93;5.88;;;;;;;26.27;49.72;95128.81;5090287;28;20031;-78
2021/06/29 07:54:50;;;;;;;7.72;5.43;;;;;;;26.33;49.23;95134.19;5069368;28;20028;-78
2021/06/29 07:57:16;;;;;;;8.50;6.00;;;;;;;26.26;49.65;95121.09;5078489;28;20060;-78
2021/06/29 07:59:41;;;;;;;8.07;5.80;;;;;;;26.32;49.47;95129.97;5079218;28;20056;-79
2021/06/29 08:02:07;;;;;;;8.75;5.57;;;;;;;26.30;49.46;95127.75;5062470;28;20085;-79
2021/06/29 08:04:33;;;;;;;9.20;5.65;;;;;;;26.29;48.96;95125.53;5076570;28;20477;-79
2021/06/29 08:06:58;;;;;;;9.95;5.43;;;;;;;25.99;49.48;95075.81;5065556;28;20031;-79
2021/06/29 08:09:24;;;;;;;7.57;5.30;;;;;;;25.85;49.43;95060.63;5063081;28;20031;-78
2021/06/29 08:11:49;;;;;;;7.85;6.05;;;;;;;26.24;49.75;95109.94;5076172;28;20418;-78
2021/06/29 08:14:14;;;;;;;9.48;5.60;;;;;;;26.27;49.55;95122.56;5073051;28;20037;-81
2021/06/29 08:16:43;;;;;;;8.50;5.63;;;;;;;25.83;48.93;95062.44;5056277;28;20028;-80
2021/06/29 08:19:09;;;;;;;8.50;6.15;;;;;;;26.26;48.76;95110.13;5080089;28;20035;-80
2021/06/29 08:21:34;;;;;;;8.45;5.63;;;;;;;26.05;48.71;95084.66;5069206;28;20029;-79
2021/06/29 08:24:00;;;;;;;7.55;5.68;;;;;;;25.10;48.80;94937.63;5072753;28;20054;-80
2021/06/29 08:26:25;;;;;;;7.53;5.60;;;;;;;26.13;48.94;95096.47;5065829;28;20571;-79
2021/06/29 08:28:50;;;;;;;9.20;6.03;;;;;;;26.26;48.85;95115.63;5064051;28;21388;-80
2021/06/29 08:31:19;;;;;;;7.10;5.40;;;;;;;25.79;48.76;95040.09;5070234;28;20043;-80
2021/06/29 08:33:46;;;;;;;6.93;5.50;;;;;;;26.16;49.11;95089.94;5068873;28;20141;-79
2021/06/29 08:36:11;;;;;;;9.57;5.95;;;;;;;26.18;48.95;95086.66;5071384;28;20036;-78
2021/06/29 08:38:36;;;;;;;7.63;5.50;;;;;;;26.27;49.21;95117.09;5074288;28;20023;-79
2021/06/29 08:41:02;;;;;;;7.90;5.18;;;;;;;26.23;48.56;95094.03;5068773;28;20034;-79
2021/06/29 08:43:28;;;;;;;7.68;5.50;;;;;;;25.74;48.02;95029.25;5065100;28;20025;-78
2021/06/29 08:45:55;;;;;;;8.00;5.30;;;;;;;25.86;48.56;95045.69;5082714;28;20024;-79
2021/06/29 08:48:20;;;;;;;8.10;5.10;;;;;;;26.23;48.42;95083.81;5051871;28;20494;-79
2021/06/29 08:50:46;;;;;;;7.07;5.60;;;;;;;26.28;48.29;95099.44;5065998;28;20036;-80
2021/06/29 08:53:12;;;;;;;11.80;5.50;;;;;;;25.99;48.27;95053.94;5063242;28;20017;-79
2021/06/29 08:55:40;;;;;;;7.03;5.28;;;;;;;26.27;48.74;95097.94;5059111;28;20487;-79
2021/06/29 08:58:06;;;;;;;7.55;5.47;;;;;;;26.30;49.05;95091.44;5067528;28;20570;-78
2021/06/29 09:00:31;;;;;;;6.35;4.93;;;;;;;26.31;48.52;95079.22;5064313;28;20028;-78
2021/06/29 09:02:56;;;;;;;7.90;5.50;;;;;;;26.33;48.68;95082.16;5060285;28;20399;-80
2021/06/29 09:05:23;;;;;;;7.57;5.57;;;;;;;25.86;48.24;95018.34;5065523;28;20024;-79
2021/06/29 09:08:00;;;;;;;6.25;4.80;;;;;;;25.99;48.26;95026.56;5068505;28;20021;-79
2021/06/29 09:10:26;;;;;;;7.57;5.13;;;;;;;26.33;47.95;95069.19;5067094;28;20024;-78
2021/06/29 09:12:51;;;;;;;6.72;5.20;;;;;;;26.24;47.67;95051.72;5072357;28;20046;-78
2021/06/29 09:15:23;;;;;;;6.20;4.75;;;;;;;26.41;47.89;95072.03;5075758;28;20558;-77
2021/06/29 09:17:50;;;;;;;6.95;5.03;;;;;;;26.39;47.45;95053.41;5063166;28;20581;-77
2021/06/29 09:20:15;;;;;;;5.70;4.60;;;;;;;26.61;47.42;95069.41;5065325;28;20490;-74
2021/06/29 09:22:40;;;;;;;7.50;5.07;;;;;;;26.26;47.12;95006.09;5067750;28;20036;-78
2021/06/29 09:25:27;;;;;;;6.78;4.63;;;;;;;26.75;47.58;95056.41;5068723;28;20028;-79
2021/06/29 09:27:53;;;;;;;12.95;4.82;;;;;;;26.78;47.34;95045.13;5068562;28;20459;-80
2021/06/29 09:30:39;;;;;;;8.40;4.88;;;;;;;27.00;46.74;95059.13;5059837;28;20035;-75
2021/06/29 09:33:12;;;;;;;7.97;5.47;;;;;;;27.11;46.23;95056.13;5057755;28;20128;-86
2021/06/29 09:35:38;;;;;;;7.90;4.95;;;;;;;27.06;46.37;95037.78;5066028;28;20510;-79
2021/06/29 09:38:04;;;;;;;6.97;4.45;;;;;;;27.27;46.20;95057.75;5063186;28;20111;-83
2021/06/29 09:40:31;;;;;;;7.30;4.90;;;;;;;27.33;46.06;95050.84;5072342;28;20115;-78
2021/06/29 09:43:12;;;;;;;6.55;5.03;;;;;;;26.75;45.38;94946.81;5080201;28;20438;-81
2021/06/29 09:45:44;;;;;;;8.00;4.93;;;;;;;27.48;45.68;95050.28;5033456;28;20028;-77
2021/06/29 09:48:10;;;;;;;6.32;4.40;;;;;;;27.53;45.58;95052.16;5079365;28;20115;-85
2021/06/29 09:50:48;;;;;;;6.60;4.97;;;;;;;27.49;45.89;95035.28;5068780;28;20043;-80
2021/06/29 09:53:17;;;;;;;6.93;4.72;;;;;;;27.69;45.42;95048.28;5064624;28;20505;-81
2021/06/29 09:55:47;;;;;;;5.85;4.82;;;;;;;27.25;44.80;94983.50;5058566;28;20028;-78
2021/06/29 09:58:14;;;;;;;6.80;4.50;;;;;;;27.80;45.02;95040.50;5060141;28;20035;-75
2021/06/29 10:00:47;;;;;;;7.10;4.78;;;;;;;27.19;44.34;94949.25;5064227;28;20417;-75
2021/06/29 10:03:18;;;;;;;7.15;5.03;;;;;;;27.49;44.26;94991.41;5061713;28;20123;-78
2021/06/29 10:05:43;;;;;;;6.50;4.85;;;;;;;27.61;44.43;94987.84;5061611;28;20021;-77
2021/06/29 10:08:09;;;;;;;6.85;4.88;;;;;;;27.93;44.17;95030.16;5067286;28;20505;-81
2021/06/29 10:10:34;;;;;;;7.47;5.05;;;;;;;27.78;44.32;95002.59;5073690;28;20032;-78
2021/06/29 10:13:18;;;;;;;6.40;4.85;;;;;;;27.78;44.44;94986.13;5074666;28;20119;-79
2021/06/29 10:15:44;;;;;;;6.15;4.88;;;;;;;27.48;44.09;94929.56;5063138;28;20132;-81
2021/06/29 10:18:10;;;;;;;6.68;4.97;;;;;;;27.95;44.07;94991.94;5052998;28;21054;-81
2021/06/29 10:20:52;;;;;;;6.18;4.80;;;;;;;28.19;43.54;95013.53;5057679;28;20521;-76
2021/06/29 10:23:19;;;;;;;7.15;5.22;;;;;;;27.88;43.97;94965.16;5058781;28;20029;-80
2021/06/29 10:25:44;;;;;;;6.50;4.63;;;;;;;28.28;43.24;95013.00;5060696;28;20111;-78
2021/06/29 10:28:12;;;;;;;9.20;5.53;;;;;;;28.16;43.83;94987.16;5069283;28;20045;-79
2021/06/29 10:30:38;;;;;;;7.55;5.13;;;;;;;28.34;43.80;95014.34;5066527;28;20750;-80
2021/06/29 10:33:03;;;;;;;6.82;4.90;;;;;;;28.37;43.49;95009.75;5053142;28;20067;-80
2021/06/29 10:35:29;;;;;;;6.13;5.13;;;;;;;28.41;43.19;95007.41;5083130;28;20028;-81
2021/06/29 10:37:54;;;;;;;6.55;4.72;;;;;;;28.39;43.31;95004.47;5064686;28;20035;-80
2021/06/29 10:40:20;;;;;;;7.00;4.97;;;;;;;28.25;43.34;94989.38;5074209;28;20035;-80
2021/06/29 10:42:45;;;;;;;6.80;4.55;;;;;;;28.34;43.39;95008.09;5070775;28;20569;-79
2021/06/29 10:45:14;;;;;;;7.20;5.28;;;;;;;28.31;43.44;94998.19;5070030;28;20387;-79
2021/06/29 10:47:40;;;;;;;6.93;4.97;;;;;;;28.26;42.81;94999.09;5072129;28;20044;-78
2021/06/29 10:50:14;;;;;;;7.63;4.95;;;;;;;28.14;43.25;94984.19;5069553;28;20028;-79
2021/06/29 10:52:39;;;;;;;6.95;4.60;;;;;;;28.18;43.10;94990.09;5069031;28;20107;-78
2021/06/29 10:55:05;;;;;;;7.47;4.78;;;;;;;28.16;43.31;94992.66;5065833;28;20029;-78
2021/06/29 10:57:38;;;;;;;6.13;4.47;;;;;;;28.06;43.42;94991.63;5065840;28;20090;-79
2021/06/29 11:00:24;;;;;;;6.13;4.60;;;;;;;27.79;43.03;94943.69;5069574;28;20020;-78
2021/06/29 11:03:09;;;;;;;6.32;4.10;;;;;;;27.75;43.08;94937.09;5067719;28;20037;-79
2021/06/29 11:05:36;;;;;;;6.78;4.80;;;;;;;27.94;43.44;94976.72;5071826;28;20020;-79
2021/06/29 11:08:11;;;;;;;5.78;4.32;;;;;;;27.86;43.50;94969.72;5069558;28;20032;-79
2021/06/29 11:10:37;;;;;;;6.70;4.70;;;;;;;27.53;43.06;94915.72;5070913;28;20075;-81
2021/06/29 11:13:07;;;;;;;5.53;4.45;;;;;;;27.39;43.18;94905.38;5052299;28;20490;-79
2021/06/29 11:15:44;;;;;;;6.30;4.57;;;;;;;27.74;43.59;94961.06;5057282;28;20033;-79
2021/06/29 11:18:10;;;;;;;5.90;4.47;;;;;;;27.09;43.53;94869.50;5072878;28;20028;-78
2021/06/29 11:20:43;;;;;;;5.57;4.28;;;;;;;27.70;43.61;94953.69;5092001;28;20020;-77
2021/06/29 11:23:14;;;;;;;6.45;5.00;;;;;;;27.66;43.67;94951.28;5095981;28;20024;-79
2021/06/29 11:25:45;;;;;;;5.40;4.60;;;;;;;27.55;43.87;94934.38;5091632;28;20035;-79
2021/06/29 11:28:31;;;;;;;5.93;4.65;;;;;;;27.64;44.20;94947.63;5076899;28;20663;-78
2021/06/29 11:31:04;;;;;;;6.28;4.65;;;;;;;27.38;44.25;94920.34;5089969;28;20040;-81
2021/06/29 11:33:38;;;;;;;6.32;4.80;;;;;;;27.47;43.90;94928.09;5069288;28;20113;-81
2021/06/29 11:36:05;;;;;;;6.72;4.30;;;;;;;27.41;43.91;94924.75;5068540;28;20040;-80